sensor_id;sensor_type;location;lat;lon;timestamp;pressure;altitude;pressure_sealevel;temperature;humidity
13968;BME280;39536;52.198;9.920;2023-02-22T00:01:19;100804.84;;;9.48;100.00
13968;BME280;39536;52.198;9.920;2023-02-22T00:03:59;100808.38;;;9.46;100.00
13968;BME280;39536;52.198;9.920;2023-02-22T00:06:26;100799.66;;;9.48;100.00
13968;BME280;39536;52.198;9.920;2023-02-22T00:08:53;100794.50;;;9.47;100.00
13968;BME280;39536;52.198;9.920;2023-02-22T00:11:22;100800.53;;;9.47;100.00
13968;BME280;39536;52.198;9.920;2023-02-22T00:13:49;100804.97;;;9.44;100.00
13968;BME280;39536;52.198;9.920;2023-02-22T00:16:19;100797.97;;;9.46;100.00
13968;BME280;39536;52.198;9.920;2023-02-22T00:18:46;100798.88;;;9.45;100.00
13968;BME280;39536;52.198;9.920;2023-02-22T00:21:14;100800.56;;;9.46;100.00
13968;BME280;39536;52.198;9.920;2023-02-22T00:23:42;100795.34;;;9.47;100.00
13968;BME280;39536;52.198;9.920;2023-02-22T00:26:11;100792.84;;;9.43;100.00
13968;BME280;39536;52.198;9.920;2023-02-22T00:28:39;100797.25;;;9.39;100.00
13968;BME280;39536;52.198;9.920;2023-02-22T00:31:06;100794.66;;;9.41;100.00
13968;BME280;39536;52.198;9.920;2023-02-22T00:33:33;100791.16;;;9.40;100.00
13968;BME280;39536;52.198;9.920;2023-02-22T00:36:01;100782.50;;;9.41;100.00
13968;BME280;39536;52.198;9.920;2023-02-22T00:38:27;100782.50;;;9.41;100.00
13968;BME280;39536;52.198;9.920;2023-02-22T00:40:54;100780.81;;;9.39;100.00
13968;BME280;39536;52.198;9.920;2023-02-22T00:43:21;100777.31;;;9.40;100.00
13968;BME280;39536;52.198;9.920;2023-02-22T00:45:50;100777.38;;;9.38;100.00
13968;BME280;39536;52.198;9.920;2023-02-22T00:48:18;100770.34;;;9.42;100.00
13968;BME280;39536;52.198;9.920;2023-02-22T00:50:45;100767.75;;;9.40;100.00
13968;BME280;39536;52.198;9.920;2023-02-22T00:53:13;100764.31;;;9.40;100.00
13968;BME280;39536;52.198;9.920;2023-02-22T00:55:40;100758.31;;;9.38;100.00
13968;BME280;39536;52.198;9.920;2023-02-22T00:58:07;100763.53;;;9.36;100.00
13968;BME280;39536;52.198;9.920;2023-02-22T01:00:36;100767.84;;;9.37;100.00
13968;BME280;39536;52.198;9.920;2023-02-22T01:03:05;100765.16;;;9.40;100.00
13968;BME280;39536;52.198;9.920;2023-02-22T01:05:33;100761.69;;;9.41;100.00
13968;BME280;39536;52.198;9.920;2023-02-22T01:08:01;100756.50;;;9.40;100.00
13968;BME280;39536;52.198;9.920;2023-02-22T01:10:29;100755.66;;;9.39;100.00
13968;BME280;39536;52.198;9.920;2023-02-22T01:12:57;100745.34;;;9.36;100.00
13968;BME280;39536;52.198;9.920;2023-02-22T01:15:25;100756.66;;;9.34;100.00
13968;BME280;39536;52.198;9.920;2023-02-22T01:17:53;100748.13;;;9.29;100.00
13968;BME280;39536;52.198;9.920;2023-02-22T01:20:22;100741.44;;;9.18;100.00
13968;BME280;39536;52.198;9.920;2023-02-22T01:22:51;100734.53;;;9.17;100.00
13968;BME280;39536;52.198;9.920;2023-02-22T01:25:21;100736.44;;;9.09;100.00
13968;BME280;39536;52.198;9.920;2023-02-22T01:27:48;100733.91;;;9.08;100.00
13968;BME280;39536;52.198;9.920;2023-02-22T01:30:18;100739.09;;;9.06;100.00
13968;BME280;39536;52.198;9.920;2023-02-22T01:32:46;100740.13;;;9.00;100.00
13968;BME280;39536;52.198;9.920;2023-02-22T01:35:15;100741.13;;;8.93;100.00
13968;BME280;39536;52.198;9.920;2023-02-22T01:37:44;100729.13;;;8.88;100.00
13968;BME280;39536;52.198;9.920;2023-02-22T01:40:15;100738.66;;;8.89;100.00
13968;BME280;39536;52.198;9.920;2023-02-22T01:42:43;100734.41;;;8.85;100.00
13968;BME280;39536;52.198;9.920;2023-02-22T01:45:41;100729.19;;;8.85;100.00
13968;BME280;39536;52.198;9.920;2023-02-22T01:48:12;100719.69;;;8.85;100.00
13968;BME280;39536;52.198;9.920;2023-02-22T01:50:43;100718.94;;;8.80;100.00
13968;BME280;39536;52.198;9.920;2023-02-22T01:53:14;100720.75;;;8.75;100.00
13968;BME280;39536;52.198;9.920;2023-02-22T01:55:42;100728.50;;;8.78;100.00
13968;BME280;39536;52.198;9.920;2023-02-22T01:58:10;100726.00;;;8.73;100.00
13968;BME280;39536;52.198;9.920;2023-02-22T02:00:37;100719.97;;;8.73;100.00
13968;BME280;39536;52.198;9.920;2023-02-22T02:03:07;100723.50;;;8.69;100.00
13968;BME280;39536;52.198;9.920;2023-02-22T02:05:36;100717.44;;;8.68;100.00
13968;BME280;39536;52.198;9.920;2023-02-22T02:08:08;100720.03;;;8.70;100.00
13968;BME280;39536;52.198;9.920;2023-02-22T02:10:40;100719.19;;;8.68;100.00
13968;BME280;39536;52.198;9.920;2023-02-22T02:13:07;100719.25;;;8.66;100.00
13968;BME280;39536;52.198;9.920;2023-02-22T02:15:35;100721.22;;;8.55;100.00
13968;BME280;39536;52.198;9.920;2023-02-22T02:18:04;100717.75;;;8.54;100.00
13968;BME280;39536;52.198;9.920;2023-02-22T02:20:37;100717.75;;;8.54;100.00
13968;BME280;39536;52.198;9.920;2023-02-22T02:23:22;100712.66;;;8.50;100.00
13968;BME280;39536;52.198;9.920;2023-02-22T02:26:13;100704.88;;;8.50;100.00
13968;BME280;39536;52.198;9.920;2023-02-22T02:29:10;100704.00;;;8.51;100.00
13968;BME280;39536;52.198;9.920;2023-02-22T02:32:03;100703.22;;;8.46;100.00
13968;BME280;39536;52.198;9.920;2023-02-22T02:34:41;100707.63;;;8.42;100.00
13968;BME280;39536;52.198;9.920;2023-02-22T02:37:20;100703.41;;;8.38;100.00
13968;BME280;39536;52.198;9.920;2023-02-22T02:39:50;100701.66;;;8.37;100.00
13968;BME280;39536;52.198;9.920;2023-02-22T02:42:23;100698.25;;;8.35;100.00
13968;BME280;39536;52.198;9.920;2023-02-22T02:44:57;100693.97;;;8.32;100.00
13968;BME280;39536;52.198;9.920;2023-02-22T02:47:31;100688.06;;;8.26;100.00
13968;BME280;39536;52.198;9.920;2023-02-22T02:50:04;100686.38;;;8.23;100.00
13968;BME280;39536;52.198;9.920;2023-02-22T02:52:33;100688.19;;;8.20;100.00
13968;BME280;39536;52.198;9.920;2023-02-22T02:55:01;100688.97;;;8.23;100.00
13968;BME280;39536;52.198;9.920;2023-02-22T02:57:29;100690.72;;;8.23;100.00
13968;BME280;39536;52.198;9.920;2023-02-22T02:59:56;100687.28;;;8.21;100.00
13968;BME280;39536;52.198;9.920;2023-02-22T03:02:41;100691.56;;;8.22;100.00
13968;BME280;39536;52.198;9.920;2023-02-22T03:05:20;100684.75;;;8.18;100.00
13968;BME280;39536;52.198;9.920;2023-02-22T03:07:53;100682.22;;;8.15;100.00
13968;BME280;39536;52.198;9.920;2023-02-22T03:10:36;100680.59;;;8.10;100.00
13968;BME280;39536;52.198;9.920;2023-02-22T03:13:08;100682.28;;;8.12;100.00
13968;BME280;39536;52.198;9.920;2023-02-22T03:15:47;100682.31;;;8.10;100.00
13968;BME280;39536;52.198;9.920;2023-02-22T03:18:24;100676.31;;;8.08;100.00
13968;BME280;39536;52.198;9.920;2023-02-22T03:20:58;100679.75;;;8.08;100.00
13968;BME280;39536;52.198;9.920;2023-02-22T03:23:31;100677.16;;;8.08;100.00
13968;BME280;39536;52.198;9.920;2023-02-22T03:26:02;100674.59;;;8.07;100.00
13968;BME280;39536;52.198;9.920;2023-02-22T03:28:31;100670.19;;;8.10;100.00
13968;BME280;39536;52.198;9.920;2023-02-22T03:31:01;100665.94;;;8.06;100.00
13968;BME280;39536;52.198;9.920;2023-02-22T03:33:32;100665.97;;;8.05;100.00
13968;BME280;39536;52.198;9.920;2023-02-22T03:36:06;100670.22;;;8.09;100.00
13968;BME280;39536;52.198;9.920;2023-02-22T03:38:36;100667.56;;;8.12;100.00
13968;BME280;39536;52.198;9.920;2023-02-22T03:41:05;100657.97;;;8.16;100.00
13968;BME280;39536;52.198;9.920;2023-02-22T03:43:37;100654.56;;;8.14;100.00
13968;BME280;39536;52.198;9.920;2023-02-22T03:46:05;100663.16;;;8.17;100.00
13968;BME280;39536;52.198;9.920;2023-02-22T03:48:40;100650.06;;;8.22;100.00
13968;BME280;39536;52.198;9.920;2023-02-22T03:51:09;100652.66;;;8.22;100.00
13968;BME280;39536;52.198;9.920;2023-02-22T03:53:40;100654.50;;;8.17;100.00
13968;BME280;39536;52.198;9.920;2023-02-22T03:56:11;100654.41;;;8.21;100.00
13968;BME280;39536;52.198;9.920;2023-02-22T03:58:40;100650.81;;;8.27;100.00
13968;BME280;39536;52.198;9.920;2023-02-22T04:01:10;100643.75;;;8.33;100.00
13968;BME280;39536;52.198;9.920;2023-02-22T04:03:38;100637.66;;;8.36;100.00
13968;BME280;39536;52.198;9.920;2023-02-22T04:06:07;100642.84;;;8.36;100.00
13968;BME280;39536;52.198;9.920;2023-02-22T04:08:33;100642.81;;;8.39;100.00
13968;BME280;39536;52.198;9.920;2023-02-22T04:11:00;100643.66;;;8.41;100.00
13968;BME280;39536;52.198;9.920;2023-02-22T04:13:27;100639.19;;;8.46;100.00
13968;BME280;39536;52.198;9.920;2023-02-22T04:15:53;100642.63;;;8.47;100.00
13968;BME280;39536;52.198;9.920;2023-02-22T04:18:20;100638.31;;;8.47;100.00
13968;BME280;39536;52.198;9.920;2023-02-22T04:20:48;100636.63;;;8.45;100.00
13968;BME280;39536;52.198;9.920;2023-02-22T04:23:15;100635.81;;;8.43;100.00
13968;BME280;39536;52.198;9.920;2023-02-22T04:25:41;100636.44;;;8.52;100.00
13968;BME280;39536;52.198;9.920;2023-02-22T04:28:08;100630.47;;;8.50;100.00
13968;BME280;39536;52.198;9.920;2023-02-22T04:30:34;100629.66;;;8.47;100.00
13968;BME280;39536;52.198;9.920;2023-02-22T04:33:01;100626.19;;;8.46;100.00
13968;BME280;39536;52.198;9.920;2023-02-22T04:35:27;100628.00;;;8.44;100.00
13968;BME280;39536;52.198;9.920;2023-02-22T04:37:55;100630.72;;;8.37;100.00
13968;BME280;39536;52.198;9.920;2023-02-22T04:40:22;100628.97;;;8.39;100.00
13968;BME280;39536;52.198;9.920;2023-02-22T04:42:49;100627.28;;;8.36;100.00
13968;BME280;39536;52.198;9.920;2023-02-22T04:45:15;100630.69;;;8.40;100.00
13968;BME280;39536;52.198;9.920;2023-02-22T04:47:42;100632.44;;;8.39;100.00
13968;BME280;39536;52.198;9.920;2023-02-22T04:50:10;100623.75;;;8.40;100.00
13968;BME280;39536;52.198;9.920;2023-02-22T04:52:37;100626.31;;;8.42;100.00
13968;BME280;39536;52.198;9.920;2023-02-22T04:55:06;100627.13;;;8.44;100.00
13968;BME280;39536;52.198;9.920;2023-02-22T04:57:33;100628.06;;;8.41;100.00
13968;BME280;39536;52.198;9.920;2023-02-22T04:59:59;100617.69;;;8.41;100.00
13968;BME280;39536;52.198;9.920;2023-02-22T05:02:26;100622.03;;;8.38;100.00
13968;BME280;39536;52.198;9.920;2023-02-22T05:04:52;100622.03;;;8.39;100.00
13968;BME280;39536;52.198;9.920;2023-02-22T05:07:19;100624.66;;;8.39;100.00
13968;BME280;39536;52.198;9.920;2023-02-22T05:09:45;100621.16;;;8.40;100.00
13968;BME280;39536;52.198;9.920;2023-02-22T05:12:13;100622.94;;;8.38;100.00
13968;BME280;39536;52.198;9.920;2023-02-22T05:14:40;100624.56;;;8.42;100.00
13968;BME280;39536;52.198;9.920;2023-02-22T05:17:07;100632.28;;;8.45;100.00
13968;BME280;39536;52.198;9.920;2023-02-22T05:19:33;100632.31;;;8.44;100.00
13968;BME280;39536;52.198;9.920;2023-02-22T05:22:03;100627.16;;;8.42;100.00
13968;BME280;39536;52.198;9.920;2023-02-22T05:24:30;100624.53;;;8.44;100.00
13968;BME280;39536;52.198;9.920;2023-02-22T05:26:56;100628.06;;;8.41;100.00
13968;BME280;39536;52.198;9.920;2023-02-22T05:29:25;100625.50;;;8.40;100.00
13968;BME280;39536;52.198;9.920;2023-02-22T05:31:51;100628.94;;;8.40;100.00
13968;BME280;39536;52.198;9.920;2023-02-22T05:34:18;100620.31;;;8.40;100.00
13968;BME280;39536;52.198;9.920;2023-02-22T05:36:44;100622.09;;;8.36;100.00
13968;BME280;39536;52.198;9.920;2023-02-22T05:39:11;100618.91;;;8.23;100.00
13968;BME280;39536;52.198;9.920;2023-02-22T05:41:38;100616.38;;;8.19;100.00
13968;BME280;39536;52.198;9.920;2023-02-22T05:44:05;100616.38;;;8.19;100.00
13968;BME280;39536;52.198;9.920;2023-02-22T05:46:32;100621.69;;;8.14;100.00
13968;BME280;39536;52.198;9.920;2023-02-22T05:48:59;100611.34;;;8.13;100.00
13968;BME280;39536;52.198;9.920;2023-02-22T05:51:26;100614.81;;;8.12;100.00
13968;BME280;39536;52.198;9.920;2023-02-22T05:53:52;100615.78;;;8.07;100.00
13968;BME280;39536;52.198;9.920;2023-02-22T05:56:20;100618.41;;;8.06;100.00
13968;BME280;39536;52.198;9.920;2023-02-22T05:58:47;100613.16;;;8.09;100.00
13968;BME280;39536;52.198;9.920;2023-02-22T06:01:13;100614.94;;;8.07;100.00
13968;BME280;39536;52.198;9.920;2023-02-22T06:03:41;100614.88;;;8.08;100.00
13968;BME280;39536;52.198;9.920;2023-02-22T06:06:08;100607.03;;;8.12;100.00
13968;BME280;39536;52.198;9.920;2023-02-22T06:08:35;100605.34;;;8.09;100.00
13968;BME280;39536;52.198;9.920;2023-02-22T06:11:01;100601.97;;;8.05;100.00
13968;BME280;39536;52.198;9.920;2023-02-22T06:13:28;100607.09;;;8.08;100.00
13968;BME280;39536;52.198;9.920;2023-02-22T06:16:01;100607.03;;;8.12;100.00
13968;BME280;39536;52.198;9.920;2023-02-22T06:18:36;100607.09;;;8.10;100.00
13968;BME280;39536;52.198;9.920;2023-02-22T06:21:07;100599.31;;;8.08;100.00
13968;BME280;39536;52.198;9.920;2023-02-22T06:23:41;100595.75;;;8.13;100.00
13968;BME280;39536;52.198;9.920;2023-02-22T06:26:09;100596.66;;;8.12;100.00
13968;BME280;39536;52.198;9.920;2023-02-22T06:28:42;100596.72;;;8.08;100.00
13968;BME280;39536;52.198;9.920;2023-02-22T06:31:15;100601.97;;;8.07;100.00
13968;BME280;39536;52.198;9.920;2023-02-22T06:33:46;100601.09;;;8.06;100.00
13968;BME280;39536;52.198;9.920;2023-02-22T06:36:30;100600.22;;;8.07;100.00
13968;BME280;39536;52.198;9.920;2023-02-22T06:39:10;100595.88;;;8.08;100.00
13968;BME280;39536;52.198;9.920;2023-02-22T06:41:42;100603.75;;;8.03;100.00
13968;BME280;39536;52.198;9.920;2023-02-22T06:44:12;100601.31;;;7.96;100.00
13968;BME280;39536;52.198;9.920;2023-02-22T06:46:53;100608.16;;;8.00;100.00
13968;BME280;39536;52.198;9.920;2023-02-22T06:49:22;100602.97;;;8.00;100.00
13968;BME280;39536;52.198;9.920;2023-02-22T06:51:54;100602.22;;;7.93;100.00
13968;BME280;39536;52.198;9.920;2023-02-22T06:54:25;100598.00;;;7.89;100.00
13968;BME280;39536;52.198;9.920;2023-02-22T06:56:56;100601.44;;;7.90;100.00
13968;BME280;39536;52.198;9.920;2023-02-22T06:59:27;100605.78;;;7.89;100.00
13968;BME280;39536;52.198;9.920;2023-02-22T07:01:59;100605.78;;;7.89;100.00
13968;BME280;39536;52.198;9.920;2023-02-22T07:04:29;100613.63;;;7.86;100.00
13968;BME280;39536;52.198;9.920;2023-02-22T07:07:03;100605.88;;;7.84;100.00
13968;BME280;39536;52.198;9.920;2023-02-22T07:09:31;100600.59;;;7.89;100.00
13968;BME280;39536;52.198;9.920;2023-02-22T07:11:57;100611.94;;;7.85;100.00
13968;BME280;39536;52.198;9.920;2023-02-22T07:14:24;100612.72;;;7.87;100.00
13968;BME280;39536;52.198;9.920;2023-02-22T07:16:50;100612.63;;;7.93;100.00
13968;BME280;39536;52.198;9.920;2023-02-22T07:19:38;100617.78;;;7.95;100.00
13968;BME280;39536;52.198;9.920;2023-02-22T07:22:08;100615.06;;;7.99;100.00
13968;BME280;39536;52.198;9.920;2023-02-22T07:24:34;100614.19;;;8.00;100.00
13968;BME280;39536;52.198;9.920;2023-02-22T07:27:00;100616.72;;;8.03;100.00
13968;BME280;39536;52.198;9.920;2023-02-22T07:29:27;100613.25;;;8.04;100.00
13968;BME280;39536;52.198;9.920;2023-02-22T07:31:55;100608.97;;;8.02;100.00
13968;BME280;39536;52.198;9.920;2023-02-22T07:34:29;100607.97;;;8.09;100.00
13968;BME280;39536;52.198;9.920;2023-02-22T07:36:56;100608.88;;;8.06;100.00
13968;BME280;39536;52.198;9.920;2023-02-22T07:42:23;100612.53;;;7.98;100.00
13968;BME280;39536;52.198;9.920;2023-02-22T07:44:50;100605.69;;;7.94;100.00
13968;BME280;39536;52.198;9.920;2023-02-22T07:47:16;100603.75;;;8.03;100.00
13968;BME280;39536;52.198;9.920;2023-02-22T07:49:44;100604.50;;;8.08;100.00
13968;BME280;39536;52.198;9.920;2023-02-22T07:52:11;100608.66;;;8.17;100.00
13968;BME280;39536;52.198;9.920;2023-02-22T07:54:38;100605.94;;;8.22;100.00
13968;BME280;39536;52.198;9.920;2023-02-22T07:57:05;100606.56;;;8.33;100.00
13968;BME280;39536;52.198;9.920;2023-02-22T07:59:32;100607.25;;;8.43;100.00
13968;BME280;39536;52.198;9.920;2023-02-22T08:01:59;100596.72;;;8.50;100.00
13968;BME280;39536;52.198;9.920;2023-02-22T08:04:25;100594.78;;;8.59;100.00
13968;BME280;39536;52.198;9.920;2023-02-22T08:06:52;100590.97;;;8.72;100.00
13968;BME280;39536;52.198;9.920;2023-02-22T08:09:23;100586.41;;;8.83;100.00
13968;BME280;39536;52.198;9.920;2023-02-22T08:11:49;100595.41;;;9.04;100.00
13968;BME280;39536;52.198;9.920;2023-02-22T08:14:15;100585.56;;;9.15;100.00
13968;BME280;39536;52.198;9.920;2023-02-22T08:16:43;100588.63;;;9.31;100.00
13968;BME280;39536;52.198;9.920;2023-02-22T08:19:10;100585.59;;;9.46;100.00
13968;BME280;39536;52.198;9.920;2023-02-22T08:21:36;100582.66;;;9.59;100.00
13968;BME280;39536;52.198;9.920;2023-02-22T08:24:04;100587.41;;;9.76;100.00
13968;BME280;39536;52.198;9.920;2023-02-22T08:26:30;100579.28;;;9.86;100.00
13968;BME280;39536;52.198;9.920;2023-02-22T08:28:57;100578.13;;;9.97;100.00
13968;BME280;39536;52.198;9.920;2023-02-22T08:31:24;100576.97;;;10.07;100.00
13968;BME280;39536;52.198;9.920;2023-02-22T08:33:54;100567.97;;;10.17;100.00
13968;BME280;39536;52.198;9.920;2023-02-22T08:36:21;100572.06;;;10.26;100.00
13968;BME280;39536;52.198;9.920;2023-02-22T08:38:47;100578.72;;;10.36;100.00
13968;BME280;39536;52.198;9.920;2023-02-22T08:41:14;100577.69;;;10.40;100.00
13968;BME280;39536;52.198;9.920;2023-02-22T08:43:40;100566.25;;;10.46;100.00
13968;BME280;39536;52.198;9.920;2023-02-22T08:46:07;100567.00;;;10.49;100.00
13968;BME280;39536;52.198;9.920;2023-02-22T08:48:33;100560.84;;;10.52;100.00
13968;BME280;39536;52.198;9.920;2023-02-22T08:51:07;100563.34;;;10.55;100.00
13968;BME280;39536;52.198;9.920;2023-02-22T08:53:37;100571.13;;;10.56;100.00
13968;BME280;39536;52.198;9.920;2023-02-22T08:56:04;100564.75;;;10.65;100.00
13968;BME280;39536;52.198;9.920;2023-02-22T08:58:30;100562.97;;;10.67;100.00
13968;BME280;39536;52.198;9.920;2023-02-22T09:00:56;100561.16;;;10.69;100.00
13968;BME280;39536;52.198;9.920;2023-02-22T09:03:26;100557.34;;;10.79;100.00
13968;BME280;39536;52.198;9.920;2023-02-22T09:05:55;100552.69;;;10.89;100.00
13968;BME280;39536;52.198;9.920;2023-02-22T09:08:25;100548.09;;;10.96;100.00
13968;BME280;39536;52.198;9.920;2023-02-22T09:10:51;100553.84;;;11.05;100.00
13968;BME280;39536;52.198;9.920;2023-02-22T09:13:20;100547.59;;;11.11;100.00
13968;BME280;39536;52.198;9.920;2023-02-22T09:15:46;100542.25;;;11.14;100.00
13968;BME280;39536;52.198;9.920;2023-02-22T09:18:13;100539.50;;;11.19;100.00
13968;BME280;39536;52.198;9.920;2023-02-22T09:20:43;100544.41;;;11.28;100.00
13968;BME280;39536;52.198;9.920;2023-02-22T09:23:09;100537.13;;;11.36;100.00
13968;BME280;39536;52.198;9.920;2023-02-22T09:25:37;100540.34;;;11.44;100.00
13968;BME280;39536;52.198;9.920;2023-02-22T09:28:05;100533.34;;;11.45;100.00
13968;BME280;39536;52.198;9.920;2023-02-22T09:30:33;100545.56;;;11.44;100.00
13968;BME280;39536;52.198;9.920;2023-02-22T09:33:03;100533.13;;;11.51;100.00
13968;BME280;39536;52.198;9.920;2023-02-22T09:35:48;100535.63;;;11.54;100.00
13968;BME280;39536;52.198;9.920;2023-02-22T09:38:18;100530.63;;;11.48;100.00
13968;BME280;39536;52.198;9.920;2023-02-22T09:40:49;100535.75;;;11.51;100.00
13968;BME280;39536;52.198;9.920;2023-02-22T09:43:26;100539.16;;;11.53;100.00
13968;BME280;39536;52.198;9.920;2023-02-22T09:46:17;100544.41;;;11.51;100.00
13968;BME280;39536;52.198;9.920;2023-02-22T09:49:02;100541.81;;;11.51;100.00
13968;BME280;39536;52.198;9.920;2023-02-22T09:51:36;100529.72;;;11.49;100.00
13968;BME280;39536;52.198;9.920;2023-02-22T09:54:10;100531.66;;;11.44;100.00
13968;BME280;39536;52.198;9.920;2023-02-22T09:56:45;100524.69;;;11.44;100.00
13968;BME280;39536;52.198;9.920;2023-02-22T09:59:16;100520.25;;;11.46;100.00
13968;BME280;39536;52.198;9.920;2023-02-22T10:01:56;100526.03;;;11.54;100.00
13968;BME280;39536;52.198;9.920;2023-02-22T10:04:33;100526.50;;;11.66;100.00
13968;BME280;39536;52.198;9.920;2023-02-22T10:07:13;100519.19;;;11.75;100.00
13968;BME280;39536;52.198;9.920;2023-02-22T10:09:44;100520.59;;;11.84;100.00
13968;BME280;39536;52.198;9.920;2023-02-22T10:12:23;100517.72;;;11.92;100.00
13968;BME280;39536;52.198;9.920;2023-02-22T10:15:21;100522.66;;;11.99;100.00
13968;BME280;39536;52.198;9.920;2023-02-22T10:18:02;100510.97;;;12.08;100.00
13968;BME280;39536;52.198;9.920;2023-02-22T10:21:00;100508.94;;;12.16;100.00
13968;BME280;39536;52.198;9.920;2023-02-22T10:23:51;100508.94;;;12.16;100.00
13968;BME280;39536;52.198;9.920;2023-02-22T10:26:27;100503.38;;;12.24;100.00
13968;BME280;39536;52.198;9.920;2023-02-22T10:31:27;100497.38;;;12.44;100.00
13968;BME280;39536;52.198;9.920;2023-02-22T10:33:58;100495.16;;;12.55;100.00
13968;BME280;39536;52.198;9.920;2023-02-22T10:36:26;100488.94;;;12.58;100.00
13968;BME280;39536;52.198;9.920;2023-02-22T10:38:55;100487.13;;;12.60;100.00
13968;BME280;39536;52.198;9.920;2023-02-22T10:41:27;100493.94;;;12.64;100.00
13968;BME280;39536;52.198;9.920;2023-02-22T10:43:54;100494.00;;;12.83;100.00
13968;BME280;39536;52.198;9.920;2023-02-22T10:46:21;100485.84;;;12.90;100.00
13968;BME280;39536;52.198;9.920;2023-02-22T10:48:53;100484.53;;;13.01;100.00
13968;BME280;39536;52.198;9.920;2023-02-22T10:51:20;100480.66;;;13.09;100.00
13968;BME280;39536;52.198;9.920;2023-02-22T10:53:56;100473.78;;;13.07;100.00
13968;BME280;39536;52.198;9.920;2023-02-22T10:56:25;100470.25;;;13.08;100.00
13968;BME280;39536;52.198;9.920;2023-02-22T10:58:54;100469.50;;;13.06;100.00
13968;BME280;39536;52.198;9.920;2023-02-22T11:01:26;100467.59;;;13.09;100.00
13968;BME280;39536;52.198;9.920;2023-02-22T11:04:10;100461.16;;;13.16;100.00
13968;BME280;39536;52.198;9.920;2023-02-22T11:06:39;100455.78;;;13.20;100.00
13968;BME280;39536;52.198;9.920;2023-02-22T11:09:11;100453.59;;;13.31;100.00
13968;BME280;39536;52.198;9.920;2023-02-22T11:11:40;100455.84;;;13.38;100.00
13968;BME280;39536;52.198;9.920;2023-02-22T11:14:08;100449.34;;;13.47;100.00
13968;BME280;39536;52.198;9.920;2023-02-22T11:16:37;100445.50;;;13.54;100.00
13968;BME280;39536;52.198;9.920;2023-02-22T11:19:11;100448.91;;;13.56;100.00
13968;BME280;39536;52.198;9.920;2023-02-22T11:21:42;100448.34;;;13.69;100.00
13968;BME280;39536;52.198;9.920;2023-02-22T11:24:12;100445.34;;;13.76;100.00
13968;BME280;39536;52.198;9.920;2023-02-22T11:26:42;100440.47;;;13.88;100.00
13968;BME280;39536;52.198;9.920;2023-02-22T11:29:12;100430.69;;;13.91;100.00
13968;BME280;39536;52.198;9.920;2023-02-22T11:31:44;100431.19;;;13.99;100.00
13968;BME280;39536;52.198;9.920;2023-02-22T11:34:29;100428.31;;;14.04;100.00
13968;BME280;39536;52.198;9.920;2023-02-22T11:37:22;100426.63;;;14.20;100.00
13968;BME280;39536;52.198;9.920;2023-02-22T11:40:06;100419.88;;;14.33;100.00
13968;BME280;39536;52.198;9.920;2023-02-22T11:42:36;100426.88;;;14.50;100.00
13968;BME280;39536;52.198;9.920;2023-02-22T11:45:12;100424.59;;;14.62;100.00
13968;BME280;39536;52.198;9.920;2023-02-22T11:47:50;100418.06;;;14.70;100.00
13968;BME280;39536;52.198;9.920;2023-02-22T11:50:26;100408.63;;;14.84;100.00
13968;BME280;39536;52.198;9.920;2023-02-22T11:53:03;100413.81;;;15.01;100.00
13968;BME280;39536;52.198;9.920;2023-02-22T11:55:38;100405.63;;;15.23;100.00
13968;BME280;39536;52.198;9.920;2023-02-22T11:58:25;100400.75;;;15.33;100.00
13968;BME280;39536;52.198;9.920;2023-02-22T12:00:58;100394.63;;;15.32;100.00
13968;BME280;39536;52.198;9.920;2023-02-22T12:03:37;100399.31;;;15.27;100.00
13968;BME280;39536;52.198;9.920;2023-02-22T12:06:27;100396.84;;;15.24;100.00
13968;BME280;39536;52.198;9.920;2023-02-22T12:09:08;100391.66;;;15.22;100.00
13968;BME280;39536;52.198;9.920;2023-02-22T12:11:45;100392.16;;;15.13;100.00
13968;BME280;39536;52.198;9.920;2023-02-22T12:14:24;100382.66;;;15.11;100.00
13968;BME280;39536;52.198;9.920;2023-02-22T12:19:49;100378.22;;;15.29;100.00
13968;BME280;39536;52.198;9.920;2023-02-22T12:22:21;100376.59;;;15.42;100.00
13968;BME280;39536;52.198;9.920;2023-02-22T12:24:55;100381.16;;;15.54;100.00
13968;BME280;39536;52.198;9.920;2023-02-22T12:27:26;100377.28;;;15.61;100.00
13968;BME280;39536;52.198;9.920;2023-02-22T12:29:57;100372.56;;;15.68;100.00
13968;BME280;39536;52.198;9.920;2023-02-22T12:32:32;100373.66;;;15.64;100.00
13968;BME280;39536;52.198;9.920;2023-02-22T12:35:08;100375.00;;;15.55;100.00
13968;BME280;39536;52.198;9.920;2023-02-22T12:37:47;100364.69;;;15.68;100.00
13968;BME280;39536;52.198;9.920;2023-02-22T12:40:23;100367.31;;;15.68;100.00
13968;BME280;39536;52.198;9.920;2023-02-22T12:42:57;100368.22;;;15.83;100.00
13968;BME280;39536;52.198;9.920;2023-02-22T12:45:30;100362.94;;;15.99;100.00
13968;BME280;39536;52.198;9.920;2023-02-22T12:48:04;100357.59;;;16.00;100.00
13968;BME280;39536;52.198;9.920;2023-02-22T12:50:36;100364.09;;;16.09;100.00
13968;BME280;39536;52.198;9.920;2023-02-22T12:53:11;100355.09;;;16.13;100.00
13968;BME280;39536;52.198;9.920;2023-02-22T12:55:42;100352.38;;;16.14;100.00
13968;BME280;39536;52.198;9.920;2023-02-22T12:58:18;100350.34;;;16.04;100.00
13968;BME280;39536;52.198;9.920;2023-02-22T13:00:52;100360.13;;;16.02;100.00
13968;BME280;39536;52.198;9.920;2023-02-22T13:03:29;100349.03;;;15.97;100.00
13968;BME280;39536;52.198;9.920;2023-02-22T13:06:03;100345.47;;;15.98;100.00
13968;BME280;39536;52.198;9.920;2023-02-22T13:08:36;100344.78;;;15.80;100.00
13968;BME280;39536;52.198;9.920;2023-02-22T13:11:13;100345.38;;;15.69;100.00
13968;BME280;39536;52.198;9.920;2023-02-22T13:13:50;100341.88;;;15.53;100.00